Time,TemperatureF,DewpointF,PressureIn,WindDirection,WindDirectionDegrees,WindSpeedMPH,WindSpeedGustMPH,Humidity,HourlyPrecipIn,Conditions,Clouds,dailyrainin,SoftwareType,DateUTC
2013-03-28 00:13:00,32.5,29.0,30.25,West,266,0.0,0.0,87,0.00,,,0.00,weatherlink.com 1.10,2013-03-28 05:13:00,
2013-03-28 00:28:00,32.1,29.0,30.25,West,266,0.0,0.0,87,0.00,,,0.00,weatherlink.com 1.10,2013-03-28 05:28:00,
2013-03-28 00:43:00,31.9,29.0,30.25,West,266,0.0,0.0,88,0.00,,,0.00,weatherlink.com 1.10,2013-03-28 05:43:00,
2013-03-28 00:58:00,31.6,29.0,30.25,West,265,0.0,0.0,89,0.00,,,0.00,weatherlink.com 1.10,2013-03-28 05:58:00,
2013-03-28 01:13:00,31.2,28.0,30.25,West,266,0.0,0.0,89,0.00,,,0.00,weatherlink.com 1.10,2013-03-28 06:13:00,
2013-03-28 01:28:00,31.0,28.0,30.25,West,266,0.0,0.0,89,0.00,,,0.00,weatherlink.com 1.10,2013-03-28 06:28:00,
2013-03-28 01:43:00,30.8,28.0,30.25,West,266,0.0,0.0,90,0.00,,,0.00,weatherlink.com 1.10,2013-03-28 06:43:00,
2013-03-28 01:58:00,30.6,28.0,30.25,West,266,0.0,0.0,90,0.00,,,0.00,weatherlink.com 1.10,2013-03-28 06:58:00,
2013-03-28 02:13:00,30.4,28.0,30.25,West,266,0.0,0.0,90,0.00,,,0.00,weatherlink.com 1.10,2013-03-28 07:13:00,
2013-03-28 02:28:00,30.1,28.0,30.25,West,266,0.0,0.0,91,0.00,,,0.00,weatherlink.com 1.10,2013-03-28 07:28:00,
2013-03-28 02:43:00,29.9,28.0,30.25,West,266,0.0,0.0,91,0.00,,,0.00,weatherlink.com 1.10,2013-03-28 07:43:00,
2013-03-28 02:58:00,29.8,28.0,30.25,West,265,0.0,0.0,91,0.00,,,0.00,weatherlink.com 1.10,2013-03-28 07:58:00,
2013-03-28 03:13:00,29.7,28.0,30.25,West,265,0.0,0.0,92,0.00,,,0.00,weatherlink.com 1.10,2013-03-28 08:13:00,
2013-03-28 03:28:00,29.6,28.0,30.25,West,265,0.0,0.0,92,0.00,,,0.00,weatherlink.com 1.10,2013-03-28 08:28:00,
2013-03-28 03:43:00,29.4,27.0,30.25,West,266,0.0,0.0,92,0.00,,,0.00,weatherlink.com 1.10,2013-03-28 08:43:00,
2013-03-28 03:58:00,29.4,27.0,30.25,West,266,0.0,0.0,92,0.00,,,0.00,weatherlink.com 1.10,2013-03-28 08:58:00,
2013-03-28 04:13:00,29.3,27.0,30.25,West,266,0.0,0.0,92,0.00,,,0.00,weatherlink.com 1.10,2013-03-28 09:13:00,
2013-03-28 04:28:00,29.4,28.0,30.26,West,265,0.0,0.0,93,0.00,,,0.00,weatherlink.com 1.10,2013-03-28 09:28:00,
2013-03-28 04:43:00,29.6,28.0,30.26,West,266,0.0,0.0,93,0.00,,,0.00,weatherlink.com 1.10,2013-03-28 09:43:00,
2013-03-28 04:58:00,30.0,28.0,30.27,West,265,0.0,0.0,93,0.00,,,0.00,weatherlink.com 1.10,2013-03-28 09:58:00,
2013-03-28 05:13:00,30.4,29.0,30.28,West,266,0.0,0.0,93,0.00,,,0.00,weatherlink.com 1.10,2013-03-28 10:13:00,
2013-03-28 05:28:00,30.8,29.0,30.28,West,266,0.0,0.0,93,0.00,,,0.00,weatherlink.com 1.10,2013-03-28 10:28:00,
2013-03-28 05:43:00,30.8,29.0,30.29,West,265,0.0,0.0,92,0.00,,,0.00,weatherlink.com 1.10,2013-03-28 10:43:00,
2013-03-28 05:58:00,31.0,29.0,30.29,West,266,0.0,0.0,92,0.00,,,0.00,weatherlink.com 1.10,2013-03-28 10:58:00,
2013-03-28 06:13:00,31.2,29.0,30.29,West,265,0.0,0.0,92,0.00,,,0.00,weatherlink.com 1.10,2013-03-28 11:13:00,
2013-03-28 06:28:00,31.4,29.0,30.30,West,265,0.0,0.0,92,0.00,,,0.00,weatherlink.com 1.10,2013-03-28 11:28:00,
2013-03-28 06:43:00,31.3,29.0,30.30,West,265,0.0,0.0,91,0.00,,,0.00,weatherlink.com 1.10,2013-03-28 11:43:00,
2013-03-28 06:58:00,30.9,29.0,30.30,West,266,0.0,0.0,91,0.00,,,0.00,weatherlink.com 1.10,2013-03-28 11:58:00,
2013-03-28 07:13:00,30.7,29.0,30.30,West,265,0.0,0.0,92,0.00,,,0.00,weatherlink.com 1.10,2013-03-28 12:13:00,
2013-03-28 07:28:00,30.8,29.0,30.31,West,266,0.0,0.0,93,0.00,,,0.00,weatherlink.com 1.10,2013-03-28 12:28:00,
2013-03-28 07:43:00,31.2,29.0,30.31,West,265,0.0,0.0,93,0.00,,,0.00,weatherlink.com 1.10,2013-03-28 12:43:00,
2013-03-28 07:58:00,31.9,30.0,30.31,West,266,0.0,0.0,94,0.00,,,0.00,weatherlink.com 1.10,2013-03-28 12:58:00,
2013-03-28 08:13:00,33.0,32.0,30.32,West,265,0.0,0.0,94,0.00,,,0.00,weatherlink.com 1.10,2013-03-28 13:13:00,
2013-03-28 08:28:00,34.5,33.0,30.32,West,265,0.0,0.0,93,0.00,,,0.00,weatherlink.com 1.10,2013-03-28 13:28:00,
2013-03-28 08:44:00,36.9,33.0,30.32,West,266,0.0,0.0,87,0.00,,,0.00,weatherlink.com 1.10,2013-03-28 13:44:00,
2013-03-28 08:59:00,40.0,34.0,30.32,NNW,331,0.0,1.0,78,0.00,,,0.00,weatherlink.com 1.10,2013-03-28 13:59:00,
2013-03-28 09:14:00,43.2,34.0,30.33,NNW,331,0.0,0.0,71,0.00,,,0.00,weatherlink.com 1.10,2013-03-28 14:14:00,
2013-03-28 09:29:00,45.5,33.0,30.32,NE,51,0.0,0.0,62,0.00,,,0.00,weatherlink.com 1.10,2013-03-28 14:29:00,
2013-03-28 09:44:00,47.4,32.0,30.32,North,350,0.0,2.0,55,0.00,,,0.00,weatherlink.com 1.10,2013-03-28 14:44:00,
2013-03-28 09:59:00,48.7,31.0,30.32,East,95,0.0,1.0,51,0.00,,,0.00,weatherlink.com 1.10,2013-03-28 14:59:00,
2013-03-28 10:14:00,50.3,31.0,30.33,NNW,336,0.0,3.0,48,0.00,,,0.00,weatherlink.com 1.10,2013-03-28 15:14:00,
2013-03-28 10:29:00,51.1,31.0,30.33,ENE,76,1.0,7.0,46,0.00,,,0.00,weatherlink.com 1.10,2013-03-28 15:29:00,
2013-03-28 10:44:00,52.3,31.0,30.33,ENE,67,4.0,7.0,44,0.00,,,0.00,weatherlink.com 1.10,2013-03-28 15:44:00,
2013-03-28 10:59:00,53.0,29.0,30.33,North,355,2.0,7.0,40,0.00,,,0.00,weatherlink.com 1.10,2013-03-28 15:59:00,
2013-03-28 11:14:00,53.7,31.0,30.32,NNW,336,0.0,6.0,43,0.00,,,0.00,weatherlink.com 1.10,2013-03-28 16:14:00,
2013-03-28 11:29:00,55.0,30.0,30.32,ENE,61,0.0,4.0,39,0.00,,,0.00,weatherlink.com 1.10,2013-03-28 16:29:00,
2013-03-28 11:44:00,55.1,29.0,30.32,West,275,0.0,7.0,37,0.00,,,0.00,weatherlink.com 1.10,2013-03-28 16:44:00,
2013-03-28 11:59:00,56.9,29.0,30.31,NW,313,3.0,4.0,35,0.00,,,0.00,weatherlink.com 1.10,2013-03-28 16:59:00,
2013-03-28 12:14:00,57.9,27.0,30.31,NNW,348,4.0,5.0,31,0.00,,,0.00,weatherlink.com 1.10,2013-03-28 17:14:00,
2013-03-28 12:29:00,58.7,29.0,30.30,ENE,57,2.0,3.0,32,0.00,,,0.00,weatherlink.com 1.10,2013-03-28 17:29:00,
2013-03-28 12:44:00,58.9,27.0,30.29,ENE,62,2.0,6.0,30,0.00,,,0.00,weatherlink.com 1.10,2013-03-28 17:44:00,
2013-03-28 12:59:00,58.7,29.0,30.29,West,273,1.0,6.0,32,0.00,,,0.00,weatherlink.com 1.10,2013-03-28 17:59:00,
2013-03-28 13:14:00,60.2,32.0,30.28,NW,313,0.0,8.0,34,0.00,,,0.00,weatherlink.com 1.10,2013-03-28 18:14:00,
2013-03-28 13:29:00,60.8,31.0,30.27,NNW,343,1.0,5.0,32,0.00,,,0.00,weatherlink.com 1.10,2013-03-28 18:29:00,
2013-03-28 13:45:00,61.2,31.0,30.27,NNE,24,2.0,6.0,32,0.00,,,0.00,weatherlink.com 1.10,2013-03-28 18:45:00,
2013-03-28 14:00:00,60.9,31.0,30.26,SE,132,3.0,11.0,33,0.00,,,0.00,weatherlink.com 1.10,2013-03-28 19:00:00,
2013-03-28 14:15:00,60.7,33.0,30.26,NNW,331,6.0,8.0,36,0.00,,,0.00,weatherlink.com 1.10,2013-03-28 19:15:00,
2013-03-28 14:30:00,62.1,32.0,30.24,West,263,2.0,6.0,33,0.00,,,0.00,weatherlink.com 1.10,2013-03-28 19:30:00,
2013-03-28 14:45:00,61.7,34.0,30.24,NW,322,0.0,7.0,36,0.00,,,0.00,weatherlink.com 1.10,2013-03-28 19:45:00,
2013-03-28 15:00:00,61.1,34.0,30.23,North,351,4.0,9.0,36,0.00,,,0.00,weatherlink.com 1.10,2013-03-28 20:00:00,
2013-03-28 15:15:00,61.8,34.0,30.23,WNW,288,0.0,5.0,35,0.00,,,0.00,weatherlink.com 1.10,2013-03-28 20:15:00,
2013-03-28 15:30:00,62.0,33.0,30.22,ENE,76,3.0,9.0,34,0.00,,,0.00,weatherlink.com 1.10,2013-03-28 20:30:00,
2013-03-28 15:45:00,61.9,34.0,30.22,NNW,336,2.0,9.0,35,0.00,,,0.00,weatherlink.com 1.10,2013-03-28 20:45:00,
2013-03-28 16:00:00,61.6,32.0,30.22,East,92,2.0,11.0,33,0.00,,,0.00,weatherlink.com 1.10,2013-03-28 21:00:00,
2013-03-28 16:15:00,61.4,33.0,30.22,NE,51,1.0,10.0,34,0.00,,,0.00,weatherlink.com 1.10,2013-03-28 21:15:00,
2013-03-28 16:30:00,62.2,31.0,30.21,NNE,32,7.0,11.0,31,0.00,,,0.00,weatherlink.com 1.10,2013-03-28 21:30:00,
2013-03-28 16:45:00,62.3,31.0,30.21,West,268,3.0,6.0,31,0.00,,,0.00,weatherlink.com 1.10,2013-03-28 21:45:00,
2013-03-28 17:00:00,61.6,31.0,30.21,NNW,328,2.0,7.0,32,0.00,,,0.00,weatherlink.com 1.10,2013-03-28 22:00:00,
2013-03-28 17:15:00,61.1,30.0,30.21,WNW,301,2.0,7.0,31,0.00,,,0.00,weatherlink.com 1.10,2013-03-28 22:15:00,
2013-03-28 17:30:00,60.9,31.0,30.21,NW,320,1.0,5.0,32,0.00,,,0.00,weatherlink.com 1.10,2013-03-28 22:30:00,
2013-03-28 17:45:00,60.4,32.0,30.20,North,355,0.0,7.0,34,0.00,,,0.00,weatherlink.com 1.10,2013-03-28 22:45:00,
2013-03-28 18:00:00,60.1,31.0,30.21,East,80,0.0,6.0,33,0.00,,,0.00,weatherlink.com 1.10,2013-03-28 23:00:00,
2013-03-28 18:15:00,59.7,31.0,30.21,NW,314,0.0,5.0,34,0.00,,,0.00,weatherlink.com 1.10,2013-03-28 23:15:00,
2013-03-28 18:30:00,59.3,31.0,30.21,NNW,336,0.0,5.0,35,0.00,,,0.00,weatherlink.com 1.10,2013-03-28 23:30:00,
2013-03-28 18:45:00,58.1,33.0,30.22,NW,314,0.0,3.0,39,0.00,,,0.00,weatherlink.com 1.10,2013-03-28 23:45:00,
2013-03-28 19:15:00,52.4,37.0,30.23,NW,314,0.0,0.0,56,0.00,,,0.00,weatherlink.com 1.10,2013-03-29 00:15:00,
2013-03-28 19:30:00,50.5,36.0,30.23,NW,314,0.0,0.0,59,0.00,,,0.00,weatherlink.com 1.10,2013-03-29 00:30:00,
2013-03-28 19:45:00,49.0,36.0,30.23,NW,314,0.0,0.0,62,0.00,,,0.00,weatherlink.com 1.10,2013-03-29 00:45:00,
2013-03-28 20:00:00,47.6,36.0,30.23,NW,314,0.0,0.0,65,0.00,,,0.00,weatherlink.com 1.10,2013-03-29 01:00:00,
2013-03-28 20:15:00,46.4,37.0,30.23,NW,314,0.0,0.0,69,0.00,,,0.00,weatherlink.com 1.10,2013-03-29 01:15:00,
2013-03-28 20:30:00,45.4,36.0,30.24,NW,314,0.0,0.0,70,0.00,,,0.00,weatherlink.com 1.10,2013-03-29 01:30:00,
2013-03-28 20:45:00,44.5,35.0,30.24,NW,314,0.0,0.0,69,0.00,,,0.00,weatherlink.com 1.10,2013-03-29 01:45:00,
2013-03-28 21:00:00,43.7,36.0,30.24,NW,314,0.0,0.0,74,0.00,,,0.00,weatherlink.com 1.10,2013-03-29 02:00:00,
2013-03-28 21:15:00,42.7,35.0,30.25,NW,314,0.0,0.0,75,0.00,,,0.00,weatherlink.com 1.10,2013-03-29 02:15:00,
2013-03-28 21:30:00,42.0,35.0,30.25,NW,314,0.0,0.0,76,0.00,,,0.00,weatherlink.com 1.10,2013-03-29 02:30:00,
2013-03-28 21:45:00,41.3,34.0,30.26,NW,314,0.0,0.0,76,0.00,,,0.00,weatherlink.com 1.10,2013-03-29 02:45:00,
2013-03-28 22:00:00,40.7,35.0,30.26,NW,314,0.0,0.0,79,0.00,,,0.00,weatherlink.com 1.10,2013-03-29 03:00:00,
2013-03-28 22:15:00,40.0,34.0,30.26,NW,314,0.0,0.0,78,0.00,,,0.00,weatherlink.com 1.10,2013-03-29 03:15:00,
2013-03-28 22:30:00,39.5,34.0,30.26,NW,314,0.0,0.0,79,0.00,,,0.00,weatherlink.com 1.10,2013-03-29 03:30:00,
2013-03-28 22:45:00,39.0,34.0,30.26,NW,314,0.0,0.0,82,0.00,,,0.00,weatherlink.com 1.10,2013-03-29 03:45:00,
2013-03-28 23:00:00,38.5,34.0,30.26,NW,314,0.0,0.0,83,0.00,,,0.00,weatherlink.com 1.10,2013-03-29 04:00:00,
2013-03-28 23:15:00,38.1,33.0,30.26,NW,314,0.0,0.0,83,0.00,,,0.00,weatherlink.com 1.10,2013-03-29 04:15:00,
2013-03-28 23:30:00,37.7,33.0,30.26,NW,314,0.0,0.0,84,0.00,,,0.00,weatherlink.com 1.10,2013-03-29 04:30:00,
2013-03-28 23:45:00,37.3,33.0,30.26,NW,314,0.0,0.0,84,0.00,,,0.00,weatherlink.com 1.10,2013-03-29 04:45:00,